Time;durP1;ratioP1;P1;durP2;ratioP2;P2;SDS_P1;SDS_P2;PMS_P1;PMS_P2;Temp;Humidity;BMP_temperature;BMP_pressure;BME280_temperature;BME280_humidity;BME280_pressure;Samples;Min_cycle;Max_cycle;Signal;HPM_P1;HPM_P2
2023/06/14 00:01:06;;;;;;;3.90;3.20;;;17.40;94.30;;;;;;4972511;28;20475;-73
2023/06/14 00:03:32;;;;;;;10.77;3.57;;;17.40;94.40;;;;;;4968428;28;20463;-74
2023/06/14 00:05:59;;;;;;;4.63;2.73;;;17.40;94.60;;;;;;4972375;28;20463;-74
2023/06/14 00:08:27;;;;;;;3.50;3.20;;;17.40;94.80;;;;;;4971169;28;20520;-73
2023/06/14 00:10:55;;;;;;;5.80;3.60;;;17.30;95.10;;;;;;4969636;28;20488;-72
2023/06/14 00:13:22;;;;;;;5.93;2.87;;;17.30;95.30;;;;;;4973935;28;20554;-72
2023/06/14 00:15:48;;;;;;;4.83;2.93;;;17.20;95.60;;;;;;4968981;28;20901;-75
2023/06/14 00:18:16;;;;;;;3.73;2.87;;;17.20;95.60;;;;;;4971936;28;20529;-73
2023/06/14 00:20:43;;;;;;;4.60;3.20;;;17.20;95.90;;;;;;4972075;28;20901;-73
2023/06/14 00:23:10;;;;;;;3.63;3.00;;;17.10;95.90;;;;;;4966934;28;20532;-74
2023/06/14 00:25:37;;;;;;;3.30;3.00;;;17.20;96.30;;;;;;4973020;28;20299;-73
2023/06/14 00:28:05;;;;;;;5.82;3.80;;;17.10;96.40;;;;;;4976434;28;20205;-73
2023/06/14 00:30:32;;;;;;;4.95;3.33;;;17.10;96.60;;;;;;4970496;28;20296;-74
2023/06/14 00:32:59;;;;;;;4.10;2.67;;;17.00;96.90;;;;;;4967962;28;20311;-74
2023/06/14 00:35:26;;;;;;;6.53;3.00;;;17.00;97.20;;;;;;4972868;28;20488;-74
2023/06/14 00:37:54;;;;;;;3.80;2.97;;;16.90;97.30;;;;;;4970924;28;20239;-74
2023/06/14 00:40:21;;;;;;;6.73;3.00;;;16.90;97.60;;;;;;4966374;28;20262;-72
2023/06/14 00:42:49;;;;;;;7.13;2.97;;;16.80;97.80;;;;;;4970761;28;21038;-74
2023/06/14 00:45:17;;;;;;;5.43;3.22;;;16.80;98.10;;;;;;4972329;28;20451;-75
2023/06/14 00:47:46;;;;;;;5.93;2.90;;;16.70;98.30;;;;;;4969731;28;20199;-73
2023/06/14 00:50:13;;;;;;;4.38;3.25;;;16.70;98.60;;;;;;4968668;28;20296;-72
2023/06/14 00:52:41;;;;;;;5.20;3.73;;;16.70;98.90;;;;;;4976466;28;20254;-74
2023/06/14 00:55:08;;;;;;;10.40;3.40;;;16.60;99.00;;;;;;4967846;28;20456;-75
2023/06/14 00:57:37;;;;;;;5.30;3.40;;;16.60;99.40;;;;;;4971903;28;20230;-73
2023/06/14 01:00:08;;;;;;;6.70;2.88;;;16.60;99.60;;;;;;4966082;28;20236;-73
2023/06/14 01:02:37;;;;;;;3.07;2.73;;;16.50;99.80;;;;;;4976281;28;20272;-75
2023/06/14 01:05:06;;;;;;;3.45;3.15;;;16.50;99.90;;;;;;4971872;28;20457;-73
2023/06/14 01:07:41;;;;;;;4.60;3.15;;;16.40;99.90;;;;;;4974060;28;20211;-72
2023/06/14 01:10:21;;;;;;;4.28;3.03;;;16.50;99.90;;;;;;4974792;28;20204;-74
2023/06/14 01:12:57;;;;;;;3.67;2.60;;;16.40;99.90;;;;;;4968523;28;20220;-74
2023/06/14 01:15:24;;;;;;;3.03;2.50;;;16.40;99.90;;;;;;4965656;28;20723;-74
2023/06/14 01:17:53;;;;;;;5.97;3.00;;;16.40;99.90;;;;;;4970933;28;20702;-73
2023/06/14 01:20:22;;;;;;;3.60;3.03;;;16.40;99.90;;;;;;4971245;28;20219;-74
2023/06/14 01:22:53;;;;;;;6.20;3.20;;;16.40;99.90;;;;;;4973558;28;20225;-74
2023/06/14 01:25:22;;;;;;;4.65;2.70;;;16.40;99.90;;;;;;4966493;28;20286;-74
2023/06/14 01:27:50;;;;;;;5.15;3.50;;;16.40;99.90;;;;;;4969264;28;20231;-71
2023/06/14 01:30:19;;;;;;;3.17;2.47;;;16.40;99.90;;;;;;4969436;28;20202;-73
2023/06/14 01:32:47;;;;;;;4.70;3.45;;;16.40;99.90;;;;;;4971818;28;20259;-75
2023/06/14 01:35:13;;;;;;;7.97;3.20;;;16.30;99.90;;;;;;4966983;28;20212;-75
2023/06/14 01:37:41;;;;;;;8.18;3.50;;;16.30;99.90;;;;;;4967223;28;20228;-74
2023/06/14 01:40:11;;;;;;;4.88;3.35;;;16.30;99.90;;;;;;4965169;28;20629;-72
2023/06/14 01:42:39;;;;;;;5.40;3.60;;;16.20;99.90;;;;;;4967549;28;20697;-73
2023/06/14 01:48:44;;;;;;;3.20;2.90;;;16.20;99.90;;;;;;5014248;28;20248;-83
2023/06/14 01:51:11;;;;;;;5.68;2.78;;;16.10;99.90;;;;;;5014554;28;20226;-83
2023/06/14 01:53:38;;;;;;;5.57;3.97;;;16.10;99.90;;;;;;5016273;28;20243;-82
2023/06/14 01:56:07;;;;;;;6.28;3.90;;;16.10;99.90;;;;;;5026042;28;20248;-82
2023/06/14 01:58:35;;;;;;;3.97;3.10;;;16.10;99.90;;;;;;5025823;28;20224;-82
2023/06/14 02:01:02;;;;;;;4.57;2.67;;;16.00;99.90;;;;;;5030506;28;20229;-83
2023/06/14 02:03:29;;;;;;;4.57;2.70;;;16.00;99.90;;;;;;5021532;28;20237;-83
2023/06/14 02:05:57;;;;;;;6.85;3.00;;;16.00;99.90;;;;;;5022480;28;20284;-83
2023/06/14 02:08:24;;;;;;;7.43;3.17;;;16.00;99.90;;;;;;5013847;28;20210;-82
2023/06/14 02:10:50;;;;;;;6.20;3.50;;;16.00;99.90;;;;;;5021169;28;20201;-83
2023/06/14 02:13:19;;;;;;;3.65;3.00;;;15.90;99.90;;;;;;5011914;28;20217;-82
2023/06/14 02:15:46;;;;;;;3.85;3.45;;;15.90;99.90;;;;;;5025075;28;20212;-82
2023/06/14 02:18:13;;;;;;;11.30;4.30;;;15.90;99.90;;;;;;5023001;28;20275;-82
2023/06/14 02:20:40;;;;;;;10.32;3.42;;;15.90;99.90;;;;;;5017398;28;20663;-82
2023/06/14 02:23:07;;;;;;;5.90;3.55;;;16.00;99.90;;;;;;5015385;28;20239;-81
2023/06/14 02:25:35;;;;;;;4.43;3.50;;;15.90;99.90;;;;;;5019121;28;20240;-82
2023/06/14 02:28:01;;;;;;;6.30;3.75;;;15.80;99.90;;;;;;5026342;28;20209;-82
2023/06/14 02:30:30;;;;;;;6.20;4.28;;;15.80;99.90;;;;;;5030907;28;20233;-83
2023/06/14 02:32:58;;;;;;;6.95;3.30;;;15.70;99.90;;;;;;5029485;28;20256;-83
2023/06/14 02:35:26;;;;;;;3.80;3.40;;;15.70;99.90;;;;;;5026002;28;20225;-82
2023/06/14 02:37:54;;;;;;;3.90;2.97;;;15.60;99.90;;;;;;5031346;28;20223;-83
2023/06/14 02:40:21;;;;;;;5.57;3.03;;;15.60;99.90;;;;;;5027340;28;20184;-82
2023/06/14 02:42:47;;;;;;;4.43;3.60;;;15.60;99.90;;;;;;5028271;28;20206;-82
2023/06/14 02:45:14;;;;;;;6.47;3.47;;;15.60;99.90;;;;;;5033522;28;20200;-82
2023/06/14 02:47:43;;;;;;;4.95;3.55;;;15.60;99.90;;;;;;5031142;28;20202;-82
2023/06/14 02:50:10;;;;;;;6.72;3.67;;;15.50;99.90;;;;;;5040243;28;20211;-82
2023/06/14 02:52:37;;;;;;;6.53;4.68;;;15.50;99.90;;;;;;5033187;28;20285;-83
2023/06/14 02:55:06;;;;;;;6.63;3.95;;;15.50;99.90;;;;;;5030410;28;20221;-83
2023/06/14 02:57:32;;;;;;;7.07;3.50;;;15.40;99.90;;;;;;5047164;23;20232;-73
2023/06/14 03:00:02;;;;;;;6.32;4.18;;;15.30;99.90;;;;;;5017648;28;20263;-73
2023/06/14 03:02:29;;;;;;;6.30;4.18;;;15.30;99.90;;;;;;5017261;28;20229;-72
2023/06/14 03:05:01;;;;;;;4.40;3.95;;;15.30;99.90;;;;;;5024136;28;20295;-74
2023/06/14 03:07:29;;;;;;;6.72;4.47;;;15.30;99.90;;;;;;5034306;28;20540;-72
2023/06/14 03:09:56;;;;;;;6.80;5.07;;;15.30;99.90;;;;;;5041418;28;20200;-74
2023/06/14 03:12:29;;;;;;;5.43;4.65;;;15.30;99.90;;;;;;5036264;28;20628;-75
2023/06/14 03:14:56;;;;;;;3.45;3.15;;;15.30;99.90;;;;;;5039002;28;20269;-72
2023/06/14 03:17:33;;;;;;;4.63;3.58;;;15.30;99.90;;;;;;5044643;28;20208;-73
2023/06/14 03:20:01;;;;;;;6.07;3.83;;;15.30;99.90;;;;;;5027755;28;20204;-73
2023/06/14 03:22:28;;;;;;;6.45;4.03;;;15.30;99.90;;;;;;5036496;28;20228;-73
2023/06/14 03:24:55;;;;;;;5.28;3.50;;;15.30;99.90;;;;;;5038227;28;20580;-74
2023/06/14 03:27:24;;;;;;;4.60;4.20;;;15.30;99.90;;;;;;5040184;28;20290;-74
2023/06/14 03:29:51;;;;;;;5.10;3.60;;;15.30;99.90;;;;;;5034320;28;20208;-71
2023/06/14 03:32:18;;;;;;;4.55;4.00;;;15.30;99.90;;;;;;5041321;28;20229;-75
2023/06/14 03:34:45;;;;;;;5.00;4.00;;;15.30;99.90;;;;;;5036985;28;20209;-74
2023/06/14 03:37:13;;;;;;;5.53;3.50;;;15.40;99.90;;;;;;5030041;28;20226;-75
2023/06/14 03:39:46;;;;;;;10.70;3.88;;;15.40;99.90;;;;;;5043488;28;20232;-73
2023/06/14 03:42:13;;;;;;;10.63;5.50;;;15.40;99.90;;;;;;5031563;28;20225;-74
2023/06/14 03:44:41;;;;;;;4.70;3.85;;;15.50;99.90;;;;;;5047771;28;20310;-75
2023/06/14 03:47:08;;;;;;;9.93;4.30;;;15.50;99.90;;;;;;5038674;28;20609;-72
2023/06/14 03:49:36;;;;;;;6.40;3.40;;;15.50;99.90;;;;;;5039234;28;20201;-74
2023/06/14 03:52:04;;;;;;;6.95;4.13;;;15.50;99.90;;;;;;5034030;28;20239;-75
2023/06/14 03:54:32;;;;;;;6.20;4.00;;;15.60;99.90;;;;;;5043574;28;20284;-74
2023/06/14 03:56:59;;;;;;;6.03;3.90;;;15.60;99.90;;;;;;5039653;28;20220;-73
2023/06/14 03:59:26;;;;;;;5.63;4.38;;;15.70;99.90;;;;;;5040306;28;20228;-73
2023/06/14 04:01:55;;;;;;;8.32;4.32;;;15.80;99.90;;;;;;5040396;28;20291;-75
2023/06/14 04:04:28;;;;;;;5.35;3.80;;;16.00;99.90;;;;;;5039589;28;20697;-73
2023/06/14 04:06:56;;;;;;;8.53;3.83;;;16.40;99.90;;;;;;5037802;28;20202;-73
2023/06/14 04:09:24;;;;;;;6.20;4.70;;;17.20;99.90;;;;;;5033422;28;20448;-73
2023/06/14 04:11:52;;;;;;;6.00;4.40;;;18.00;99.90;;;;;;5038323;28;20457;-73
2023/06/14 04:14:20;;;;;;;7.33;4.30;;;19.00;99.90;;;;;;5037535;28;20443;-73
2023/06/14 04:16:47;;;;;;;6.23;3.60;;;19.80;97.10;;;;;;5034978;28;20542;-73
2023/06/14 04:19:14;;;;;;;13.83;5.50;;;20.40;95.20;;;;;;5039340;28;20488;-73
2023/06/14 04:21:40;;;;;;;4.23;2.73;;;21.20;93.60;;;;;;5043336;28;20447;-73
2023/06/14 04:24:13;;;;;;;6.03;3.80;;;21.90;92.10;;;;;;5045119;28;20572;-73
2023/06/14 04:26:40;;;;;;;8.10;3.37;;;22.60;90.90;;;;;;5042365;28;20442;-73
2023/06/14 04:29:08;;;;;;;6.00;3.37;;;22.90;89.50;;;;;;5050060;28;20540;-74
2023/06/14 04:31:37;;;;;;;5.03;3.60;;;23.00;88.20;;;;;;5029444;28;20449;-73
2023/06/14 04:34:05;;;;;;;5.10;3.67;;;23.50;87.00;;;;;;5030975;28;20817;-73
2023/06/14 04:36:34;;;;;;;5.50;3.83;;;23.50;85.70;;;;;;5041898;28;20487;-73
2023/06/14 04:39:03;;;;;;;6.10;4.37;;;23.80;85.50;;;;;;5035503;28;20479;-74
2023/06/14 04:41:30;;;;;;;5.33;3.93;;;23.80;83.80;;;;;;5037843;28;20494;-74
2023/06/14 04:43:58;;;;;;;6.23;3.67;;;24.20;83.70;;;;;;5040306;28;20536;-72
2023/06/14 04:46:28;;;;;;;5.10;4.10;;;24.30;82.40;;;;;;5029617;28;20448;-75
2023/06/14 04:48:56;;;;;;;4.27;3.10;;;24.40;81.80;;;;;;5038949;28;20447;-73
2023/06/14 04:51:29;;;;;;;6.17;4.13;;;24.60;81.00;;;;;;5029898;28;20543;-74
2023/06/14 04:53:58;;;;;;;5.27;4.00;;;24.90;80.40;;;;;;5038624;28;20538;-74
2023/06/14 04:56:26;;;;;;;4.70;3.47;;;24.80;79.60;;;;;;5035801;28;20458;-73
2023/06/14 04:58:53;;;;;;;6.40;4.00;;;25.20;78.80;;;;;;5035831;28;20873;-72
2023/06/14 05:01:22;;;;;;;5.50;4.10;;;25.00;78.60;;;;;;5038957;28;20439;-73
2023/06/14 05:03:51;;;;;;;9.20;4.67;;;25.10;79.10;;;;;;5046083;28;20480;-73
2023/06/14 05:06:18;;;;;;;3.97;3.57;;;25.50;77.80;;;;;;5037251;28;20475;-73
2023/06/14 05:08:45;;;;;;;6.37;4.00;;;25.70;75.80;;;;;;5035382;28;20470;-72
2023/06/14 05:11:12;;;;;;;11.00;5.30;;;26.00;77.10;;;;;;5034845;28;20446;-74
2023/06/14 05:13:40;;;;;;;5.17;4.00;;;26.30;75.00;;;;;;5040519;28;20473;-74
2023/06/14 05:16:07;;;;;;;4.70;4.20;;;26.50;74.40;;;;;;5033143;28;20516;-72
2023/06/14 05:18:35;;;;;;;4.80;4.10;;;26.80;73.30;;;;;;5037004;28;20551;-73
2023/06/14 05:21:04;;;;;;;5.97;4.13;;;27.10;73.00;;;;;;5032633;28;20490;-72
2023/06/14 05:23:31;;;;;;;7.63;4.63;;;27.20;72.10;;;;;;5035808;28;20480;-73
2023/06/14 05:25:57;;;;;;;7.10;3.30;;;27.50;71.50;;;;;;5046527;28;20553;-74
2023/06/14 05:28:24;;;;;;;5.90;4.93;;;28.10;70.40;;;;;;5037051;28;20853;-73
2023/06/14 05:30:52;;;;;;;9.13;5.50;;;28.50;68.80;;;;;;5043502;28;20473;-73
2023/06/14 05:33:19;;;;;;;7.07;4.70;;;28.60;67.60;;;;;;5034741;28;21008;-72
2023/06/14 05:35:46;;;;;;;7.63;3.93;;;28.80;67.30;;;;;;5032537;28;20455;-74
2023/06/14 05:38:15;;;;;;;5.60;4.13;;;28.60;66.70;;;;;;5032637;28;20981;-73
2023/06/14 05:40:42;;;;;;;8.50;4.50;;;28.80;67.20;;;;;;5032092;28;20543;-74
2023/06/14 05:43:08;;;;;;;5.50;3.90;;;29.00;65.80;;;;;;5033795;28;20519;-72
2023/06/14 05:45:35;;;;;;;6.47;3.93;;;29.10;65.50;;;;;;5035511;28;20523;-72
2023/06/14 05:48:02;;;;;;;12.33;4.80;;;28.70;65.90;;;;;;5034572;28;20436;-74
2023/06/14 05:50:29;;;;;;;5.07;4.57;;;28.80;65.90;;;;;;5036932;28;20519;-73
2023/06/14 05:52:56;;;;;;;9.40;3.70;;;28.60;66.20;;;;;;5040505;28;20511;-76
2023/06/14 05:55:25;;;;;;;5.37;4.83;;;28.80;65.80;;;;;;5038556;28;20443;-73
2023/06/14 05:57:52;;;;;;;5.60;4.00;;;28.90;64.70;;;;;;5038027;28;20477;-73
2023/06/14 06:00:19;;;;;;;6.40;4.40;;;29.40;64.20;;;;;;5032411;28;20454;-75
2023/06/14 06:02:47;;;;;;;4.00;3.70;;;29.50;63.00;;;;;;5036578;28;20470;-74
2023/06/14 06:05:15;;;;;;;6.67;4.53;;;29.90;62.50;;;;;;5043880;28;20481;-72
2023/06/14 06:07:44;;;;;;;4.97;4.50;;;30.10;61.70;;;;;;5037209;28;20442;-74
2023/06/14 06:10:11;;;;;;;6.40;4.30;;;30.20;60.50;;;;;;5033683;28;20454;-74
2023/06/14 06:12:43;;;;;;;4.50;4.00;;;30.50;61.10;;;;;;5036699;28;20957;-74
2023/06/14 06:15:12;;;;;;;6.60;4.30;;;30.70;59.60;;;;;;5038010;28;20530;-73
2023/06/14 06:17:39;;;;;;;6.70;4.00;;;30.60;59.40;;;;;;5036732;28;20467;-73
2023/06/14 06:20:08;;;;;;;3.90;3.60;;;30.90;58.50;;;;;;5040505;28;20597;-73
2023/06/14 06:22:35;;;;;;;6.50;3.70;;;30.90;58.70;;;;;;5038265;28;20464;-74
2023/06/14 06:25:02;;;;;;;7.27;4.40;;;31.40;58.20;;;;;;5039933;28;20528;-74
2023/06/14 06:27:29;;;;;;;3.73;3.43;;;32.10;57.20;;;;;;5035128;28;20443;-73
2023/06/14 06:29:57;;;;;;;5.00;4.50;;;32.50;55.70;;;;;;5032739;28;20533;-74
2023/06/14 06:32:24;;;;;;;5.90;4.10;;;32.90;54.90;;;;;;5038521;28;20561;-71
2023/06/14 06:34:51;;;;;;;6.07;4.00;;;32.60;53.90;;;;;;5035149;28;20451;-74
2023/06/14 06:37:18;;;;;;;5.80;3.83;;;32.40;53.70;;;;;;5042037;28;20465;-75
2023/06/14 06:39:45;;;;;;;4.10;3.80;;;32.50;54.30;;;;;;5029729;28;20518;-72
2023/06/14 06:42:13;;;;;;;5.67;4.30;;;32.60;54.10;;;;;;5043824;28;20553;-74
2023/06/14 06:44:40;;;;;;;5.27;3.90;;;32.90;53.20;;;;;;5030746;28;20470;-73
2023/06/14 06:47:09;;;;;;;6.43;4.07;;;33.10;52.90;;;;;;5047095;28;20466;-74
2023/06/14 06:49:36;;;;;;;4.40;3.30;;;33.10;53.30;;;;;;5046967;28;20431;-73
2023/06/14 06:52:04;;;;;;;3.67;3.37;;;33.00;53.00;;;;;;5052742;28;20525;-74
2023/06/14 06:54:32;;;;;;;5.03;3.70;;;33.20;52.40;;;;;;5052551;28;20454;-73
2023/06/14 06:56:58;;;;;;;4.40;4.00;;;33.20;52.50;;;;;;5049749;28;20490;-73
2023/06/14 06:59:26;;;;;;;4.57;3.70;;;33.40;51.00;;;;;;5048751;28;20562;-74
2023/06/14 07:01:53;;;;;;;6.57;3.70;;;32.70;51.40;;;;;;5048326;28;20438;-73
2023/06/14 07:04:22;;;;;;;4.40;4.00;;;33.00;51.70;;;;;;5049502;28;20525;-72
2023/06/14 07:06:49;;;;;;;5.67;4.00;;;33.00;50.90;;;;;;5042068;28;20453;-73
2023/06/14 07:09:16;;;;;;;8.20;4.40;;;33.40;51.50;;;;;;5041037;28;20447;-74
2023/06/14 07:11:45;;;;;;;4.50;4.10;;;33.10;50.70;;;;;;5039837;28;20478;-73
2023/06/14 07:14:12;;;;;;;4.07;3.67;;;33.30;51.00;;;;;;5033455;28;20460;-74
2023/06/14 07:16:41;;;;;;;3.27;2.83;;;33.80;49.70;;;;;;5041214;28;20446;-73
2023/06/14 07:19:08;;;;;;;3.53;3.23;;;33.90;48.20;;;;;;5035128;28;20485;-73
2023/06/14 07:21:38;;;;;;;3.63;3.27;;;33.70;48.20;;;;;;5037602;28;20811;-74
2023/06/14 07:24:06;;;;;;;3.70;2.90;;;34.10;47.70;;;;;;5043751;28;20481;-74
2023/06/14 07:26:35;;;;;;;8.63;3.50;;;34.10;47.30;;;;;;5028890;28;20933;-73
2023/06/14 07:29:01;;;;;;;3.40;3.10;;;34.30;46.50;;;;;;5039510;28;20455;-73
2023/06/14 07:31:28;;;;;;;4.00;3.17;;;33.80;46.70;;;;;;5035002;28;20940;-72
2023/06/14 07:33:55;;;;;;;5.20;3.77;;;33.50;46.40;;;;;;5045186;28;20493;-72
2023/06/14 07:36:23;;;;;;;3.97;3.43;;;32.30;47.60;;;;;;5036308;28;20526;-74
2023/06/14 07:38:51;;;;;;;3.30;3.00;;;32.20;48.70;;;;;;5039748;28;20928;-73
2023/06/14 07:41:20;;;;;;;6.03;3.20;;;32.40;48.90;;;;;;5041718;28;20538;-75
2023/06/14 07:43:47;;;;;;;3.70;3.40;;;32.60;48.90;;;;;;5034701;28;20467;-74
2023/06/14 07:46:14;;;;;;;5.43;3.57;;;33.40;48.60;;;;;;5039642;28;20532;-72
2023/06/14 07:48:41;;;;;;;4.20;3.60;;;33.40;48.40;;;;;;5032477;28;20443;-73
2023/06/14 07:51:08;;;;;;;3.60;3.30;;;33.40;48.30;;;;;;5042622;28;20516;-74
2023/06/14 07:53:35;;;;;;;3.60;3.30;;;33.40;47.70;;;;;;5032225;28;20480;-74
2023/06/14 07:56:04;;;;;;;4.20;3.40;;;33.40;48.10;;;;;;5042121;28;20445;-73
2023/06/14 07:58:31;;;;;;;7.27;4.07;;;33.60;47.80;;;;;;5040471;28;20574;-71
2023/06/14 08:00:59;;;;;;;9.73;3.30;;;33.70;48.20;;;;;;5045975;28;20476;-73
2023/06/14 08:03:26;;;;;;;4.53;3.67;;;33.50;47.00;;;;;;5034301;28;20467;-73
2023/06/14 08:05:58;;;;;;;3.60;3.30;;;33.60;46.50;;;;;;5039628;28;20509;-72
2023/06/14 08:08:25;;;;;;;4.30;3.07;;;33.50;46.70;;;;;;5036741;28;20961;-74
2023/06/14 08:10:53;;;;;;;5.40;4.10;;;33.50;46.90;;;;;;5038459;28;20811;-73
2023/06/14 08:13:22;;;;;;;3.60;3.30;;;32.90;46.80;;;;;;5042014;28;20496;-72
2023/06/14 08:15:49;;;;;;;3.80;3.50;;;32.90;47.50;;;;;;5038147;28;20462;-73
2023/06/14 08:18:17;;;;;;;4.33;3.10;;;32.80;47.60;;;;;;5026625;28;20444;-74
2023/06/14 08:20:44;;;;;;;4.93;3.07;;;33.10;47.70;;;;;;5033342;28;20522;-74
2023/06/14 08:23:11;;;;;;;3.90;3.00;;;33.20;46.50;;;;;;5045027;28;20473;-72
2023/06/14 08:25:38;;;;;;;6.47;3.20;;;32.80;46.70;;;;;;5042334;28;20445;-72
2023/06/14 08:28:06;;;;;;;3.00;2.77;;;31.90;46.70;;;;;;5039621;28;20450;-73
2023/06/14 08:30:34;;;;;;;4.40;3.10;;;31.70;47.30;;;;;;5037296;28;20439;-73
2023/06/14 08:33:01;;;;;;;12.03;3.50;;;31.50;48.00;;;;;;5036279;28;20458;-72
2023/06/14 08:35:28;;;;;;;5.03;4.23;;;31.30;49.00;;;;;;5037317;28;20454;-73
2023/06/14 08:37:55;;;;;;;3.70;3.47;;;31.60;48.70;;;;;;5045220;28;20833;-73
2023/06/14 08:40:24;;;;;;;5.40;3.47;;;32.00;48.10;;;;;;5034819;28;21018;-72
2023/06/14 08:42:53;;;;;;;6.10;3.00;;;32.20;47.00;;;;;;5040778;28;20469;-72
2023/06/14 08:45:21;;;;;;;3.90;3.60;;;32.00;47.60;;;;;;5035858;28;20447;-73
2023/06/14 08:47:51;;;;;;;3.30;3.10;;;32.20;47.20;;;;;;5032787;28;20451;-74
2023/06/14 08:50:22;;;;;;;3.30;3.10;;;32.20;47.30;;;;;;5037383;28;20450;-74
2023/06/14 08:52:54;;;;;;;3.90;3.60;;;32.20;47.80;;;;;;5042584;28;20477;-74
2023/06/14 08:55:25;;;;;;;3.90;3.60;;;32.60;48.20;;;;;;5041862;28;20465;-73
2023/06/14 08:57:54;;;;;;;4.00;3.43;;;32.90;47.90;;;;;;5040530;28;20458;-73
2023/06/14 09:00:22;;;;;;;3.70;3.40;;;33.40;47.60;;;;;;5035237;28;20597;-73
2023/06/14 09:02:55;;;;;;;6.13;3.00;;;33.80;47.00;;;;;;5038306;28;20549;-73
2023/06/14 09:05:23;;;;;;;8.43;3.70;;;33.40;47.10;;;;;;5033655;28;20467;-76
2023/06/14 09:07:52;;;;;;;4.37;3.30;;;32.90;47.00;;;;;;5036831;28;20448;-72
2023/06/14 09:10:21;;;;;;;6.03;3.90;;;32.10;47.50;;;;;;5035906;28;20497;-74
2023/06/14 09:12:48;;;;;;;4.53;3.70;;;31.10;48.90;;;;;;5033022;28;20470;-74
2023/06/14 09:15:16;;;;;;;3.63;3.43;;;30.90;49.50;;;;;;5038267;28;20440;-73
2023/06/14 09:17:43;;;;;;;3.70;3.30;;;30.80;49.40;;;;;;5049834;28;20819;-71
2023/06/14 09:20:13;;;;;;;4.00;3.27;;;30.40;49.70;;;;;;5043621;28;20508;-74
2023/06/14 09:22:41;;;;;;;5.80;3.77;;;30.00;50.80;;;;;;5038988;28;20470;-74
2023/06/14 09:25:08;;;;;;;4.60;4.00;;;29.90;51.30;;;;;;5044772;28;20477;-73
2023/06/14 09:27:35;;;;;;;3.50;3.20;;;29.90;51.50;;;;;;5035890;28;20816;-74
2023/06/14 09:30:05;;;;;;;5.40;3.57;;;29.70;51.00;;;;;;5038835;28;20527;-73
2023/06/14 09:32:32;;;;;;;6.20;3.37;;;29.10;51.60;;;;;;5040405;28;20490;-73
2023/06/14 09:34:58;;;;;;;3.67;3.37;;;28.70;52.20;;;;;;5027554;28;20922;-73
2023/06/14 09:37:32;;;;;;;5.00;3.80;;;28.80;52.90;;;;;;5044664;28;20456;-75
2023/06/14 09:39:59;;;;;;;4.43;3.57;;;28.70;53.00;;;;;;5032595;28;20617;-72
2023/06/14 09:42:28;;;;;;;7.87;4.20;;;29.20;53.40;;;;;;5029546;28;20512;-73
2023/06/14 09:44:56;;;;;;;3.40;3.20;;;29.60;52.20;;;;;;5038433;28;20551;-72
2023/06/14 09:47:23;;;;;;;9.27;3.67;;;30.00;51.50;;;;;;5028213;28;20837;-75
2023/06/14 09:49:51;;;;;;;4.23;3.83;;;29.80;51.30;;;;;;5039787;28;20818;-72
2023/06/14 09:52:20;;;;;;;6.53;3.73;;;29.50;51.90;;;;;;5032520;28;20817;-72
2023/06/14 09:54:49;;;;;;;5.47;4.40;;;29.40;52.00;;;;;;5039045;28;20471;-74
2023/06/14 09:57:18;;;;;;;3.90;3.60;;;29.40;52.30;;;;;;5032585;28;20505;-73
2023/06/14 09:59:46;;;;;;;4.60;2.87;;;30.20;51.70;;;;;;5036998;28;20490;-73
2023/06/14 10:02:23;;;;;;;4.77;4.30;;;30.20;51.30;;;;;;5032731;28;20476;-73
2023/06/14 10:04:55;;;;;;;4.20;3.80;;;29.60;52.00;;;;;;5031758;28;20453;-72
2023/06/14 10:07:23;;;;;;;5.93;4.50;;;29.80;52.80;;;;;;5036140;28;20812;-74
2023/06/14 10:09:53;;;;;;;5.63;3.73;;;30.40;52.00;;;;;;5034930;28;20474;-75
2023/06/14 10:12:21;;;;;;;4.30;3.40;;;30.40;50.80;;;;;;5032678;28;20564;-73
2023/06/14 10:14:50;;;;;;;3.80;3.50;;;30.90;50.90;;;;;;5038205;28;20445;-71
2023/06/14 10:17:25;;;;;;;4.00;3.47;;;31.20;50.40;;;;;;5036400;28;21009;-74
2023/06/14 10:19:57;;;;;;;6.23;4.33;;;30.70;49.80;;;;;;5034017;28;20475;-73
2023/06/14 10:22:31;;;;;;;4.10;3.80;;;29.90;50.60;;;;;;5041174;28;20495;-74
2023/06/14 10:25:01;;;;;;;4.33;4.00;;;29.50;51.30;;;;;;5026166;28;20459;-74
2023/06/14 10:27:30;;;;;;;3.77;3.47;;;28.80;52.60;;;;;;5039216;28;20449;-74
2023/06/14 10:30:08;;;;;;;8.80;3.73;;;28.80;53.60;;;;;;5030961;28;20446;-74
2023/06/14 10:32:35;;;;;;;5.20;4.00;;;29.00;53.00;;;;;;5036947;28;20509;-72
2023/06/14 10:35:05;;;;;;;4.13;3.70;;;28.50;53.30;;;;;;5035652;28;20953;-74
2023/06/14 10:37:32;;;;;;;5.57;3.80;;;28.50;53.70;;;;;;5018621;28;20813;-73
2023/06/14 10:40:00;;;;;;;6.17;3.57;;;28.00;54.50;;;;;;5031077;28;20574;-74
2023/06/14 10:42:33;;;;;;;4.33;4.03;;;27.80;55.20;;;;;;5040875;28;20494;-74
2023/06/14 10:45:01;;;;;;;4.50;4.10;;;27.90;55.20;;;;;;5032485;28;20442;-72
2023/06/14 10:47:29;;;;;;;4.77;4.37;;;28.10;55.40;;;;;;5038496;28;20451;-74
2023/06/14 10:49:58;;;;;;;6.60;3.97;;;27.70;55.50;;;;;;5040034;28;20438;-73
2023/06/14 10:52:30;;;;;;;10.07;3.80;;;27.70;55.50;;;;;;5039871;28;20479;-73
2023/06/14 10:55:17;;;;;;;5.20;4.13;;;27.70;55.30;;;;;;5043423;28;20482;-74
2023/06/14 10:57:46;;;;;;;5.57;4.30;;;27.70;55.20;;;;;;5040010;28;20454;-74
2023/06/14 11:00:16;;;;;;;5.30;4.60;;;27.70;54.20;;;;;;5030717;28;20487;-74
2023/06/14 11:03:18;;;;;;;9.37;4.70;;;27.40;54.00;;;;;;5027631;28;20499;-74
2023/06/14 11:05:55;;;;;;;8.00;4.10;;;27.40;54.90;;;;;;5032338;28;20452;-72
2023/06/14 11:08:44;;;;;;;6.67;4.50;;;27.30;54.40;;;;;;5034874;28;20462;-74
2023/06/14 11:11:14;;;;;;;4.33;3.93;;;27.20;54.40;;;;;;5024278;28;20465;-72
2023/06/14 11:13:45;;;;;;;6.40;4.70;;;27.10;54.40;;;;;;5043890;28;21015;-74
2023/06/14 11:16:13;;;;;;;4.90;4.10;;;27.00;55.20;;;;;;5035947;28;20527;-72
2023/06/14 11:18:42;;;;;;;7.90;5.00;;;27.20;54.80;;;;;;5037111;28;20473;-74
2023/06/14 11:21:09;;;;;;;11.37;4.90;;;27.00;54.10;;;;;;5031725;28;20526;-74
2023/06/14 11:23:37;;;;;;;6.23;4.30;;;26.80;54.90;;;;;;5038089;28;20472;-73
2023/06/14 11:26:05;;;;;;;4.67;4.07;;;26.80;55.70;;;;;;5035831;28;20443;-72
2023/06/14 11:28:41;;;;;;;4.87;4.40;;;26.90;54.70;;;;;;5035783;28;20814;-74
2023/06/14 11:31:10;;;;;;;6.93;4.77;;;27.00;54.30;;;;;;5034714;28;20438;-73
2023/06/14 11:33:37;;;;;;;5.40;4.73;;;26.90;54.50;;;;;;5031704;28;20457;-73
2023/06/14 11:36:07;;;;;;;6.20;3.63;;;26.60;54.60;;;;;;5042361;28;20446;-74
2023/06/14 11:38:37;;;;;;;8.17;5.40;;;26.40;54.80;;;;;;5039380;28;20447;-74
2023/06/14 11:41:04;;;;;;;5.20;4.57;;;26.40;54.70;;;;;;5024628;28;20480;-74
2023/06/14 11:43:32;;;;;;;5.23;4.63;;;26.40;54.90;;;;;;5033010;28;21045;-74
2023/06/14 11:46:01;;;;;;;5.80;5.20;;;26.70;55.20;;;;;;5036963;28;20514;-73
2023/06/14 11:48:37;;;;;;;5.40;4.50;;;26.70;55.10;;;;;;5036127;28;20501;-73
2023/06/14 11:51:04;;;;;;;5.90;5.13;;;26.70;55.00;;;;;;5038660;28;20477;-76
2023/06/14 11:53:31;;;;;;;5.47;4.70;;;27.00;55.30;;;;;;5038552;28;20998;-76
2023/06/14 11:55:59;;;;;;;8.70;4.83;;;27.10;55.40;;;;;;5048961;28;20446;-73
2023/06/14 11:58:26;;;;;;;6.33;4.77;;;27.00;55.70;;;;;;5027608;28;20462;-71
2023/06/14 12:00:54;;;;;;;5.13;4.30;;;27.00;55.70;;;;;;5038005;28;20576;-74
2023/06/14 12:03:27;;;;;;;7.70;4.57;;;27.00;56.00;;;;;;5043807;28;20542;-72
2023/06/14 12:06:03;;;;;;;8.90;4.90;;;26.80;55.70;;;;;;5037369;28;20922;-73
2023/06/14 12:08:38;;;;;;;8.43;4.60;;;26.60;55.90;;;;;;5041049;28;20508;-74
2023/06/14 12:11:05;;;;;;;6.77;4.30;;;26.60;56.40;;;;;;5011979;28;20449;-73
2023/06/14 12:13:34;;;;;;;9.53;4.60;;;26.50;56.50;;;;;;5032477;28;20885;-75
2023/06/14 12:16:01;;;;;;;8.60;5.03;;;26.30;56.10;;;;;;5033452;28;20497;-73
2023/06/14 12:18:36;;;;;;;6.73;4.77;;;26.20;56.40;;;;;;5035708;28;20481;-74
2023/06/14 12:21:06;;;;;;;8.20;4.23;;;26.00;56.80;;;;;;5035860;28;20478;-74
2023/06/14 12:23:46;;;;;;;7.23;4.60;;;25.90;57.30;;;;;;5042691;28;20462;-72
2023/06/14 12:26:17;;;;;;;5.27;4.83;;;26.00;57.30;;;;;;5045361;28;20959;-74
2023/06/14 12:28:45;;;;;;;4.73;4.33;;;26.10;57.20;;;;;;5037976;28;20438;-72
2023/06/14 12:31:12;;;;;;;4.97;4.53;;;26.20;56.80;;;;;;5035968;28;20443;-72
2023/06/14 12:33:41;;;;;;;5.50;3.73;;;26.20;56.50;;;;;;5037373;28;20461;-74
2023/06/14 12:36:09;;;;;;;6.07;4.73;;;26.30;57.00;;;;;;5039407;28;20495;-75
2023/06/14 12:38:36;;;;;;;5.33;4.83;;;26.20;57.00;;;;;;5034654;28;20561;-72
2023/06/14 12:41:03;;;;;;;5.87;4.27;;;26.40;57.20;;;;;;5044139;28;20589;-72
2023/06/14 12:43:30;;;;;;;5.47;4.33;;;26.50;57.10;;;;;;5037099;28;20474;-74
2023/06/14 12:45:59;;;;;;;5.90;4.87;;;26.60;57.20;;;;;;5038087;28;20528;-74
2023/06/14 12:48:27;;;;;;;6.70;4.70;;;26.50;56.70;;;;;;5045505;28;20507;-75
2023/06/14 12:50:55;;;;;;;5.60;4.67;;;26.40;56.80;;;;;;5026510;28;20442;-74
2023/06/14 12:53:23;;;;;;;5.90;4.70;;;26.40;56.90;;;;;;5038530;28;20462;-75
2023/06/14 12:55:50;;;;;;;4.93;4.53;;;26.30;57.30;;;;;;5042113;28;20822;-74